createdAt,value
2023-01-01T00:00:50.067Z,77.44
2023-01-01T00:03:38.875Z,77.40
2023-01-01T00:06:11.990Z,77.29
2023-01-01T00:08:40.640Z,77.19
2023-01-01T00:11:10.131Z,77.13
2023-01-01T00:13:40.180Z,77.03
2023-01-01T00:16:11.981Z,77.03
2023-01-01T00:18:40.565Z,76.94
2023-01-01T00:21:12.780Z,76.83
2023-01-01T00:23:41.473Z,76.88
2023-01-01T00:26:11.191Z,76.90
2023-01-01T00:28:39.437Z,76.84
2023-01-01T00:31:11.317Z,76.81
2023-01-01T00:33:39.338Z,76.76
2023-01-01T00:36:11.772Z,76.89
2023-01-01T00:38:40.964Z,77.16
2023-01-01T00:41:09.128Z,77.12
2023-01-01T00:43:37.757Z,77.24
2023-01-01T00:46:06.901Z,77.20
2023-01-01T00:48:35.463Z,77.09
2023-01-01T00:51:04.537Z,77.11
2023-01-01T00:53:32.955Z,77.48
2023-01-01T00:56:01.004Z,77.19
2023-01-01T00:58:29.048Z,77.42
2023-01-01T01:00:57.213Z,77.47
2023-01-01T01:03:28.383Z,77.44
2023-01-01T01:06:09.420Z,77.55
2023-01-01T01:08:39.363Z,77.50
2023-01-01T01:11:16.507Z,77.30
2023-01-01T01:13:47.152Z,77.39
2023-01-01T01:16:26.535Z,77.26
2023-01-01T01:18:57.717Z,77.49
2023-01-01T01:21:27.313Z,77.33
2023-01-01T01:23:57.975Z,77.43
2023-01-01T01:26:33.675Z,77.46
2023-01-01T01:29:01.800Z,77.44
2023-01-01T01:31:31.744Z,77.30
2023-01-01T01:33:59.805Z,77.35
2023-01-01T01:36:28.817Z,77.11
2023-01-01T01:38:56.910Z,77.73
2023-01-01T01:41:28.627Z,77.22
2023-01-01T01:44:03.889Z,77.20
2023-01-01T01:46:34.730Z,77.33
2023-01-01T01:49:06.449Z,77.57
2023-01-01T01:51:38.969Z,77.61
2023-01-01T01:54:15.412Z,77.56
2023-01-01T01:56:49.048Z,77.42
2023-01-01T01:59:19.130Z,77.35
2023-01-01T02:01:47.222Z,77.15
2023-01-01T02:04:16.250Z,77.02
2023-01-01T02:06:44.824Z,77.05
2023-01-01T02:09:13.346Z,77.26
2023-01-01T02:11:41.369Z,77.44
2023-01-01T02:14:09.826Z,77.52
2023-01-01T02:16:45.290Z,77.84
2023-01-01T02:19:38.536Z,77.52
2023-01-01T02:22:28.358Z,77.17
2023-01-01T02:25:05.415Z,77.21
2023-01-01T02:27:39.406Z,77.28
2023-01-01T02:30:08.919Z,77.12
2023-01-01T02:32:47.460Z,77.17
2023-01-01T02:35:38.797Z,77.23
2023-01-01T02:38:15.656Z,77.35
2023-01-01T02:40:47.367Z,77.50
2023-01-01T02:43:17.886Z,77.42
2023-01-01T02:45:50.017Z,77.33
2023-01-01T02:48:39.943Z,77.37
2023-01-01T02:51:33.385Z,77.08
2023-01-01T02:54:20.104Z,77.11
2023-01-01T02:56:49.005Z,77.42
2023-01-01T02:59:48.067Z,77.29
2023-01-01T03:02:24.560Z,77.85
2023-01-01T03:05:05.264Z,77.84
2023-01-01T03:07:54.841Z,78.02
2023-01-01T03:10:45.919Z,77.91
2023-01-01T03:13:23.063Z,77.76
2023-01-01T03:16:00.697Z,77.49
2023-01-01T03:19:12.215Z,77.35
2023-01-01T03:22:00.958Z,77.19
2023-01-01T03:24:39.029Z,77.25
2023-01-01T03:27:19.782Z,77.46
2023-01-01T03:29:51.048Z,77.57
2023-01-01T03:32:49.869Z,77.81
2023-01-01T03:35:19.759Z,77.87
2023-01-01T03:37:50.246Z,77.82
2023-01-01T03:40:19.562Z,77.93
2023-01-01T03:42:54.389Z,77.71
2023-01-01T03:45:36.400Z,77.47
2023-01-01T03:48:05.495Z,77.34
2023-01-01T03:50:45.586Z,77.38
2023-01-01T03:53:34.202Z,77.49
2023-01-01T03:56:13.396Z,77.37
2023-01-01T03:58:48.309Z,77.55
2023-01-01T04:01:47.969Z,77.33
2023-01-01T04:04:16.667Z,76.98
2023-01-01T04:06:45.040Z,76.84
2023-01-01T04:09:14.233Z,76.90
2023-01-01T04:12:04.208Z,76.74
2023-01-01T04:14:36.997Z,76.82
2023-01-01T04:17:06.675Z,76.71
2023-01-01T04:19:35.192Z,77.05
2023-01-01T04:22:04.581Z,77.11
2023-01-01T04:24:32.669Z,77.11
2023-01-01T04:27:00.849Z,77.23
2023-01-01T04:29:28.931Z,77.57
2023-01-01T04:31:57.147Z,77.66
2023-01-01T04:34:25.274Z,77.65
2023-01-01T04:36:53.432Z,77.41
2023-01-01T04:39:21.450Z,77.27
2023-01-01T04:41:49.522Z,77.18
2023-01-01T04:44:17.505Z,77.00
2023-01-01T04:46:45.614Z,76.84
2023-01-01T04:49:13.621Z,77.05
2023-01-01T04:51:41.649Z,77.60
2023-01-01T04:54:09.803Z,77.57
2023-01-01T04:56:37.877Z,77.40
2023-01-01T04:59:05.847Z,77.28
2023-01-01T05:01:33.929Z,77.36
2023-01-01T05:04:02.464Z,77.41
2023-01-01T05:06:30.473Z,77.27
2023-01-01T05:08:59.776Z,77.20
2023-01-01T05:11:30.425Z,77.05
2023-01-01T05:14:00.574Z,76.80
2023-01-01T05:16:34.375Z,77.09
2023-01-01T05:19:03.027Z,77.38
2023-01-01T05:21:34.322Z,77.67
2023-01-01T05:24:05.472Z,77.88
2023-01-01T05:26:38.931Z,78.14
2023-01-01T05:29:15.259Z,78.38
2023-01-01T05:31:45.293Z,78.18
2023-01-01T05:34:14.483Z,77.88
2023-01-01T05:36:42.643Z,77.77
2023-01-01T05:39:13.099Z,77.39
2023-01-01T05:41:41.803Z,77.08
2023-01-01T05:44:10.510Z,77.01
2023-01-01T05:46:38.781Z,77.11
2023-01-01T05:49:07.367Z,76.89
2023-01-01T05:54:02.240Z,76.34
2023-01-01T05:56:30.404Z,76.30
2023-01-01T05:58:58.320Z,76.31
2023-01-01T06:01:29.426Z,76.68
2023-01-01T06:03:58.831Z,77.07
2023-01-01T06:06:29.312Z,77.39
2023-01-01T06:08:59.808Z,77.54
2023-01-01T06:11:28.584Z,77.73
2023-01-01T06:13:59.348Z,77.68
2023-01-01T06:16:28.898Z,77.55
2023-01-01T06:18:57.135Z,77.25
2023-01-01T06:21:29.029Z,77.15
2023-01-01T06:23:58.767Z,77.13
2023-01-01T06:26:30.185Z,76.75
2023-01-01T06:28:59.252Z,76.46
2023-01-01T06:31:28.263Z,76.27
2023-01-01T06:33:56.359Z,76.19
2023-01-01T06:36:25.934Z,76.18
2023-01-01T06:38:56.444Z,76.24
2023-01-01T06:41:26.052Z,76.11
2023-01-01T06:43:58.886Z,75.98
2023-01-01T06:46:32.588Z,75.94
2023-01-01T06:49:06.625Z,76.59
2023-01-01T06:51:38.780Z,77.13
2023-01-01T06:54:07.546Z,77.43
2023-01-01T06:56:35.897Z,77.46
2023-01-01T06:59:05.587Z,77.59
2023-01-01T07:01:36.111Z,77.68
2023-01-01T07:04:12.260Z,77.70
2023-01-01T07:06:40.804Z,77.90
2023-01-01T07:09:09.265Z,77.63
2023-01-01T07:11:37.347Z,78.00
2023-01-01T07:14:05.468Z,78.31
2023-01-01T07:16:33.674Z,78.40
2023-01-01T07:19:01.724Z,78.31
2023-01-01T07:21:31.184Z,78.45
2023-01-01T07:24:00.999Z,78.41
2023-01-01T07:26:30.352Z,78.57
2023-01-01T07:29:06.278Z,78.79
2023-01-01T07:31:37.445Z,78.87
2023-01-01T07:34:06.518Z,78.86
2023-01-01T07:36:34.586Z,78.98
2023-01-01T07:39:02.741Z,79.11
2023-01-01T07:41:30.882Z,79.44
2023-01-01T07:44:00.508Z,79.48
2023-01-01T07:46:31.653Z,80.20
2023-01-01T07:48:59.645Z,79.96
2023-01-01T07:51:27.857Z,80.48
2023-01-01T07:54:00.650Z,80.80
2023-01-01T07:56:35.053Z,82.30
2023-01-01T07:59:03.687Z,81.96
2023-01-01T08:01:31.927Z,82.50
2023-01-01T08:04:00.285Z,82.88
2023-01-01T08:06:28.298Z,82.46
2023-01-01T08:08:56.396Z,82.31
2023-01-01T08:11:25.636Z,82.10
2023-01-01T08:13:53.665Z,81.89
2023-01-01T08:16:21.716Z,81.97
2023-01-01T08:18:50.060Z,82.24
2023-01-01T08:21:18.144Z,81.89
2023-01-01T08:23:46.081Z,82.76
2023-01-01T08:26:18.841Z,82.68
2023-01-01T08:28:49.663Z,82.26
2023-01-01T08:31:20.204Z,82.19
2023-01-01T08:33:48.260Z,82.02
2023-01-01T08:36:16.574Z,82.04
2023-01-01T08:38:44.651Z,81.87
2023-01-01T08:41:12.698Z,81.83
2023-01-01T08:43:40.774Z,81.47
2023-01-01T08:46:08.792Z,80.77
2023-01-01T08:48:36.983Z,80.39
2023-01-01T08:51:05.332Z,80.23
2023-01-01T08:53:33.391Z,80.24
2023-01-01T08:56:09.416Z,80.03
2023-01-01T08:58:39.147Z,79.70
2023-01-01T09:01:07.860Z,79.68
2023-01-01T09:03:36.351Z,79.35
2023-01-01T09:06:05.208Z,79.42
2023-01-01T09:08:33.583Z,79.38
2023-01-01T09:11:03.286Z,79.34
2023-01-01T09:13:32.210Z,79.32
2023-01-01T09:16:00.687Z,79.34
2023-01-01T09:18:28.871Z,79.36
2023-01-01T09:20:56.924Z,79.38
2023-01-01T09:23:25.010Z,79.18
2023-01-01T09:25:53.075Z,79.11
2023-01-01T09:28:25.670Z,79.32
2023-01-01T09:30:54.115Z,79.67
2023-01-01T09:33:22.222Z,79.63
2023-01-01T09:35:50.323Z,79.54
2023-01-01T09:38:18.365Z,79.50
2023-01-01T09:41:15.627Z,79.43
2023-01-01T09:44:04.488Z,78.96
2023-01-01T09:46:33.170Z,78.69
2023-01-01T09:49:04.507Z,78.88
2023-01-01T09:51:39.893Z,78.94
2023-01-01T09:54:28.732Z,79.03
2023-01-01T09:57:00.301Z,79.09
2023-01-01T09:59:28.826Z,79.11
2023-01-01T10:02:29.250Z,79.03
2023-01-01T10:05:21.953Z,78.81
2023-01-01T10:08:23.239Z,78.37
2023-01-01T10:10:54.913Z,78.17
2023-01-01T10:13:31.725Z,78.14
2023-01-01T10:16:24.904Z,78.16
2023-01-01T10:18:56.519Z,78.21
2023-01-01T10:21:32.963Z,78.12
2023-01-01T10:24:23.363Z,78.12
2023-01-01T10:26:53.497Z,77.87
2023-01-01T10:29:30.167Z,77.68
2023-01-01T10:31:58.748Z,77.63
2023-01-01T10:34:29.039Z,77.52
2023-01-01T10:36:59.522Z,77.59
2023-01-01T10:39:28.359Z,77.75
2023-01-01T10:41:57.955Z,78.41
2023-01-01T10:44:30.935Z,78.26
2023-01-01T10:47:05.255Z,77.85
2023-01-01T10:49:33.372Z,77.24
2023-01-01T10:52:02.922Z,77.01
2023-01-01T10:54:35.229Z,77.00
2023-01-01T10:57:27.615Z,76.89
2023-01-01T11:00:12.212Z,76.58
2023-01-01T11:02:40.517Z,76.21
2023-01-01T11:05:22.800Z,75.42
2023-01-01T11:07:51.180Z,75.08
2023-01-01T11:10:25.653Z,75.30
2023-01-01T11:13:10.243Z,75.31
2023-01-01T11:15:41.092Z,75.18
2023-01-01T11:18:14.607Z,74.87
2023-01-01T11:20:42.858Z,74.68
2023-01-01T11:23:34.212Z,74.43
2023-01-01T11:26:17.594Z,74.38
2023-01-01T11:29:03.106Z,74.25
2023-01-01T11:31:37.119Z,74.07
2023-01-01T11:34:26.504Z,73.34
2023-01-01T11:37:29.917Z,73.45
2023-01-01T11:39:58.834Z,72.73
2023-01-01T11:42:30.163Z,72.26
2023-01-01T11:45:03.928Z,72.35
2023-01-01T11:47:36.268Z,72.58
2023-01-01T11:50:14.251Z,72.33
2023-01-01T11:52:42.237Z,72.27
2023-01-01T11:55:15.845Z,71.73
2023-01-01T11:58:31.290Z,71.42
2023-01-01T12:01:04.068Z,71.20
2023-01-01T12:03:40.272Z,70.84
2023-01-01T12:06:30.999Z,70.49
2023-01-01T12:09:18.206Z,69.53
2023-01-01T12:11:52.879Z,69.58
2023-01-01T12:14:45.219Z,69.51
2023-01-01T12:17:20.413Z,69.12
2023-01-01T12:19:53.168Z,68.93
2023-01-01T12:22:21.291Z,68.64
2023-01-01T12:24:49.232Z,68.33
2023-01-01T12:27:48.993Z,68.47
2023-01-01T12:30:42.052Z,68.42
2023-01-01T12:33:30.801Z,68.56
2023-01-01T12:36:04.392Z,68.79
2023-01-01T12:38:51.336Z,69.07
2023-01-01T12:41:28.544Z,68.95
2023-01-01T12:44:17.375Z,68.91
2023-01-01T12:47:10.399Z,69.13
2023-01-01T12:50:10.960Z,69.19
2023-01-01T12:53:05.252Z,69.19
2023-01-01T12:55:45.216Z,69.28
2023-01-01T12:58:27.188Z,69.15
2023-01-01T13:01:00.577Z,69.11
2023-01-01T13:03:45.262Z,69.21
2023-01-01T13:06:17.540Z,69.42
2023-01-01T13:08:54.485Z,69.38
2023-01-01T13:11:26.860Z,69.32
2023-01-01T13:13:54.972Z,69.47
2023-01-01T13:16:39.214Z,69.96
2023-01-01T13:19:42.452Z,69.83
2023-01-01T13:22:35.321Z,69.72
2023-01-01T13:25:16.209Z,69.88
2023-01-01T13:28:00.485Z,70.44
2023-01-01T13:30:44.005Z,70.54
2023-01-01T13:33:26.083Z,70.50
2023-01-01T13:36:12.882Z,70.50
2023-01-01T13:38:43.890Z,70.66
2023-01-01T13:41:30.481Z,70.80
2023-01-01T13:44:01.377Z,71.00
2023-01-01T13:46:43.035Z,71.13
2023-01-01T13:49:15.667Z,71.13
2023-01-01T13:52:41.786Z,71.06
2023-01-01T13:55:48.438Z,71.28
2023-01-01T13:58:36.446Z,71.42
2023-01-01T14:01:18.842Z,71.49
2023-01-01T14:03:50.257Z,71.50
2023-01-01T14:06:39.868Z,71.52
2023-01-01T14:09:17.547Z,71.46
2023-01-01T14:11:45.685Z,71.46
2023-01-01T14:14:24.741Z,71.36
2023-01-01T14:17:02.760Z,71.54
2023-01-01T14:19:30.870Z,71.42
2023-01-01T14:21:58.820Z,71.58
2023-01-01T14:24:27.421Z,71.66
2023-01-01T14:26:55.770Z,71.74
2023-01-01T14:29:30.154Z,71.90
2023-01-01T14:32:01.613Z,71.74
2023-01-01T14:34:31.975Z,71.74
2023-01-01T14:37:02.285Z,71.75
2023-01-01T14:39:32.826Z,71.65
2023-01-01T14:42:06.114Z,71.69
2023-01-01T14:44:39.730Z,71.66
2023-01-01T14:47:31.765Z,71.72
2023-01-01T14:50:09.399Z,71.86
2023-01-01T14:52:37.665Z,72.25
2023-01-01T14:55:08.554Z,72.47
2023-01-01T14:57:37.556Z,72.42
2023-01-01T15:00:27.662Z,72.25
2023-01-01T15:03:05.464Z,72.32
2023-01-01T15:05:35.988Z,72.25
2023-01-01T15:08:07.308Z,72.30
2023-01-01T15:10:37.386Z,72.17
2023-01-01T15:13:07.466Z,72.27
2023-01-01T15:15:44.349Z,72.46
2023-01-01T15:18:43.621Z,72.64
2023-01-01T15:21:16.218Z,72.82
2023-01-01T15:23:56.532Z,72.82
2023-01-01T15:26:44.771Z,72.65
2023-01-01T15:29:21.186Z,72.69
2023-01-01T15:31:55.027Z,72.99
2023-01-01T15:34:28.309Z,72.87
2023-01-01T15:37:09.034Z,72.83
2023-01-01T15:39:52.130Z,73.11
2023-01-01T15:42:38.487Z,73.08
2023-01-01T15:45:25.591Z,73.03
2023-01-01T15:47:55.963Z,72.82
2023-01-01T15:50:34.317Z,72.69
2023-01-01T15:53:08.391Z,72.82
2023-01-01T15:55:37.419Z,72.99
2023-01-01T15:58:05.462Z,73.01
2023-01-01T16:00:36.433Z,72.86
2023-01-01T16:03:19.949Z,72.77
2023-01-01T16:05:50.214Z,73.01
2023-01-01T16:08:20.234Z,73.19
2023-01-01T16:10:49.072Z,73.34
2023-01-01T16:13:17.211Z,73.43
2023-01-01T16:15:52.598Z,73.29
2023-01-01T16:18:20.957Z,73.11
2023-01-01T16:20:49.025Z,73.27
2023-01-01T16:23:18.557Z,73.20
2023-01-01T16:25:46.871Z,73.05
2023-01-01T16:28:15.124Z,73.07
2023-01-01T16:30:43.796Z,73.49
2023-01-01T16:33:15.581Z,73.94
2023-01-01T16:35:44.030Z,74.25
2023-01-01T16:38:12.361Z,74.56
2023-01-01T16:40:40.398Z,74.84
2023-01-01T16:43:15.638Z,74.73
2023-01-01T16:45:44.576Z,74.47
2023-01-01T16:48:12.718Z,74.46
2023-01-01T16:50:40.765Z,74.57
2023-01-01T16:53:08.810Z,74.00
2023-01-01T16:55:36.945Z,73.65
2023-01-01T16:58:38.641Z,73.80
2023-01-01T17:00:59.555Z,74.01
2023-01-01T17:03:28.077Z,74.66
2023-01-01T17:05:56.347Z,74.90
2023-01-01T17:08:24.369Z,74.67
2023-01-01T17:11:09.787Z,74.59
2023-01-01T17:13:41.523Z,74.72
2023-01-01T17:16:10.420Z,74.73
2023-01-01T17:19:13.257Z,75.07
2023-01-01T17:21:26.690Z,75.42
2023-01-01T17:23:54.863Z,75.62
2023-01-01T17:26:25.692Z,75.68
2023-01-01T17:29:00.353Z,75.69
2023-01-01T17:31:29.462Z,75.57
2023-01-01T17:33:57.576Z,75.46
2023-01-01T17:36:27.655Z,75.59
2023-01-01T17:38:56.357Z,75.31
2023-01-01T17:41:24.412Z,75.24
2023-01-01T17:43:53.585Z,75.53
2023-01-01T17:46:24.159Z,74.99
2023-01-01T17:48:52.679Z,75.09
2023-01-01T17:51:21.363Z,75.35
2023-01-01T17:53:50.275Z,75.38
2023-01-01T17:56:19.653Z,75.40
2023-01-01T17:58:49.261Z,75.30
2023-01-01T18:01:24.569Z,75.15
2023-01-01T18:03:53.690Z,75.00
2023-01-01T18:06:22.587Z,75.36
2023-01-01T18:09:01.666Z,74.86
2023-01-01T18:11:30.896Z,74.72
2023-01-01T18:14:01.037Z,74.72
2023-01-01T18:16:32.076Z,75.09
2023-01-01T18:19:01.516Z,75.81
2023-01-01T18:21:30.223Z,76.34
2023-01-01T18:23:58.238Z,76.79
2023-01-01T18:26:29.597Z,76.88
2023-01-01T18:29:01.908Z,77.17
2023-01-01T18:31:31.989Z,76.84
2023-01-01T18:34:01.958Z,76.31
2023-01-01T18:36:31.862Z,76.89
2023-01-01T18:39:00.952Z,76.19
2023-01-01T18:41:53.513Z,76.02
2023-01-01T18:44:27.408Z,76.17
2023-01-01T18:47:04.003Z,76.37
2023-01-01T18:49:37.220Z,76.77
2023-01-01T18:52:08.187Z,76.64
2023-01-01T18:54:36.340Z,76.61
2023-01-01T18:57:16.498Z,77.06
2023-01-01T18:59:44.619Z,76.59
2023-01-01T19:02:24.552Z,76.21
2023-01-01T19:04:53.022Z,75.85
2023-01-01T19:07:20.938Z,76.20
2023-01-01T19:09:51.670Z,76.18
2023-01-01T19:12:23.403Z,76.30
2023-01-01T19:14:51.502Z,76.39
2023-01-01T19:17:22.396Z,76.96
2023-01-01T19:19:52.685Z,77.02
2023-01-01T19:22:30.279Z,77.50
2023-01-01T19:25:03.109Z,77.39
2023-01-01T19:27:34.143Z,77.46
2023-01-01T19:30:03.105Z,77.20
2023-01-01T19:32:31.117Z,77.08
2023-01-01T19:34:59.198Z,77.02
2023-01-01T19:37:27.259Z,77.59
2023-01-01T19:39:55.317Z,77.96
2023-01-01T19:42:23.407Z,78.13
2023-01-01T19:44:54.787Z,78.28
2023-01-01T19:47:22.853Z,78.44
2023-01-01T19:49:55.523Z,78.55
2023-01-01T19:52:23.932Z,78.67
2023-01-01T19:54:51.932Z,78.15
2023-01-01T19:57:20.945Z,77.33
2023-01-01T19:59:48.973Z,77.14
2023-01-01T20:02:47.254Z,77.30
2023-01-01T20:05:05.910Z,77.82
2023-01-01T20:07:34.546Z,78.14
2023-01-01T20:10:03.058Z,78.33
2023-01-01T20:12:31.152Z,78.35
2023-01-01T20:14:59.221Z,78.33
2023-01-01T20:17:27.256Z,78.46
2023-01-01T20:19:55.307Z,78.16
2023-01-01T20:22:23.391Z,77.93
2023-01-01T20:24:51.558Z,77.92
2023-01-01T20:27:24.468Z,78.03
2023-01-01T20:29:53.777Z,78.02
2023-01-01T20:32:21.983Z,78.15
2023-01-01T20:34:50.915Z,78.19
2023-01-01T20:37:38.558Z,78.03
2023-01-01T20:40:09.606Z,77.76
2023-01-01T20:42:37.876Z,77.70
2023-01-01T20:45:07.595Z,77.34
2023-01-01T20:47:37.015Z,76.91
2023-01-01T20:50:05.739Z,76.82
2023-01-01T20:52:33.753Z,76.92
2023-01-01T20:55:01.753Z,77.21
2023-01-01T20:57:29.822Z,77.61
2023-01-01T20:59:57.836Z,77.88
2023-01-01T21:02:25.974Z,78.08
2023-01-01T21:04:54.035Z,77.99
2023-01-01T21:07:22.069Z,78.29
2023-01-01T21:09:50.061Z,78.38
2023-01-01T21:12:18.073Z,78.24
2023-01-01T21:14:46.145Z,77.97
2023-01-01T21:17:23.301Z,78.00
2023-01-01T21:19:52.356Z,78.33
2023-01-01T21:22:20.414Z,78.58
2023-01-01T21:24:53.964Z,78.60
2023-01-01T21:27:30.595Z,78.65
2023-01-01T21:29:59.084Z,77.85
2023-01-01T21:32:28.613Z,77.47
2023-01-01T21:34:56.717Z,76.75
2023-01-01T21:37:47.365Z,76.35
2023-01-01T21:40:31.834Z,76.54
2023-01-01T21:43:05.688Z,76.51
2023-01-01T21:45:36.596Z,76.26
2023-01-01T21:48:15.824Z,77.12
2023-01-01T21:50:46.434Z,76.84
2023-01-01T21:53:20.385Z,76.80
2023-01-01T21:55:54.639Z,76.45
2023-01-01T21:58:46.378Z,76.04
2023-01-01T22:01:14.602Z,75.91
2023-01-01T22:03:42.754Z,75.68
2023-01-01T22:06:15.400Z,75.89
2023-01-01T22:08:44.788Z,75.58
2023-01-01T22:11:39.450Z,75.56
2023-01-01T22:14:16.303Z,75.50
2023-01-01T22:16:47.118Z,75.07
2023-01-01T22:19:17.617Z,75.09
2023-01-01T22:21:47.068Z,75.36
2023-01-01T22:24:35.523Z,75.79
2023-01-01T22:27:30.681Z,75.74
2023-01-01T22:30:34.260Z,75.81
2023-01-01T22:33:03.296Z,75.95
2023-01-01T22:35:32.566Z,75.92
2023-01-01T22:38:01.826Z,76.29
2023-01-01T22:40:34.886Z,76.94
2023-01-01T22:43:05.340Z,77.40
2023-01-01T22:45:33.509Z,77.43
2023-01-01T22:48:04.252Z,77.70
2023-01-01T22:50:32.765Z,77.53
2023-01-01T22:53:00.614Z,77.20
2023-01-01T22:55:28.733Z,77.10
2023-01-01T22:57:56.744Z,77.05
2023-01-01T23:00:24.770Z,77.00
2023-01-01T23:02:52.771Z,77.03
2023-01-01T23:05:20.886Z,76.70
2023-01-01T23:07:48.926Z,76.37
2023-01-01T23:10:17.221Z,76.35
2023-01-01T23:12:45.232Z,76.46
2023-01-01T23:15:32.463Z,76.94
2023-01-01T23:18:00.488Z,76.92
2023-01-01T23:20:28.415Z,76.30
2023-01-01T23:22:57.167Z,76.19
2023-01-01T23:25:25.527Z,76.17
2023-01-01T23:27:53.787Z,75.94
2023-01-01T23:30:21.859Z,76.06
2023-01-01T23:32:50.070Z,76.31
2023-01-01T23:35:18.707Z,76.55
2023-01-01T23:37:46.784Z,76.66
2023-01-01T23:40:14.921Z,76.65
2023-01-01T23:42:43.224Z,77.03
2023-01-01T23:45:11.341Z,77.33
2023-01-01T23:47:40.671Z,77.41
2023-01-01T23:50:11.850Z,77.45
2023-01-01T23:52:40.582Z,77.61
2023-01-01T23:55:09.097Z,77.30
2023-01-01T23:57:37.029Z,76.91
